Time;durP1;ratioP1;P1;durP2;ratioP2;P2;SDS_P1;SDS_P2;PMS_P1;PMS_P2;Temp;Humidity;BMP_temperature;BMP_pressure;BME280_temperature;BME280_humidity;BME280_pressure;Samples;Min_cycle;Max_cycle;Signal;HPM_P1;HPM_P2
2021/03/20 00:01:48;;;;;;;9.57;4.90;;;;;;;;;;5031218;28;20571;-69
2021/03/20 00:04:13;;;;;;;11.13;5.33;;;;;;;;;;5030579;28;20567;-69
2021/03/20 00:06:47;;;;;;;10.13;5.63;;;;;;;;;;5033870;28;20194;-69
2021/03/20 00:09:15;;;;;;;10.80;5.20;;;;;;;;;;5036500;28;20185;-69
2021/03/20 00:11:42;;;;;;;9.57;5.00;;;;;;;;;;5030105;28;20587;-69
2021/03/20 00:14:11;;;;;;;9.53;5.37;;;;;;;;;;5043424;28;20691;-69
2021/03/20 00:16:36;;;;;;;10.13;5.60;;;;;;;;;;5031986;28;20200;-69
2021/03/20 00:19:02;;;;;;;10.57;5.63;;;;;;;;;;5038137;28;20189;-69
2021/03/20 00:21:28;;;;;;;7.83;5.60;;;;;;;;;;5031202;28;20664;-69
2021/03/20 00:23:53;;;;;;;11.63;6.10;;;;;;;;;;5039883;28;20196;-69
2021/03/20 00:26:18;;;;;;;13.23;6.00;;;;;;;;;;5033416;28;20270;-69
2021/03/20 00:28:44;;;;;;;12.33;6.27;;;;;;;;;;5038435;28;20273;-69
2021/03/20 00:31:12;;;;;;;12.20;6.30;;;;;;;;;;5023027;28;20193;-68
2021/03/20 00:33:39;;;;;;;14.67;6.20;;;;;;;;;;5041009;28;20190;-68
2021/03/20 00:36:06;;;;;;;10.90;5.80;;;;;;;;;;5031118;28;20307;-69
2021/03/20 00:38:32;;;;;;;10.37;6.60;;;;;;;;;;5038233;28;20243;-68
2021/03/20 00:40:57;;;;;;;13.57;6.43;;;;;;;;;;5031095;28;20194;-68
2021/03/20 00:43:24;;;;;;;10.03;6.27;;;;;;;;;;5019050;28;528044;-68
2021/03/20 00:45:50;;;;;;;10.60;6.47;;;;;;;;;;5038895;28;20582;-69
2021/03/20 00:48:23;;;;;;;11.27;6.77;;;;;;;;;;5029496;28;20456;-69
2021/03/20 00:50:49;;;;;;;12.07;6.40;;;;;;;;;;5037457;28;20177;-68
2021/03/20 00:53:14;;;;;;;12.13;6.57;;;;;;;;;;5032000;28;20182;-68
2021/03/20 00:55:40;;;;;;;11.20;6.40;;;;;;;;;;5032881;28;20177;-68
2021/03/20 00:58:32;;;;;;;12.87;7.20;;;;;;;;;;5029698;28;20178;-68
2021/03/20 01:01:01;;;;;;;12.13;7.23;;;;;;;;;;5038129;28;20215;-68
2021/03/20 01:03:27;;;;;;;15.07;6.77;;;;;;;;;;5025604;28;20213;-67
2021/03/20 01:05:52;;;;;;;16.37;7.03;;;;;;;;;;5035216;28;20197;-69
2021/03/20 01:08:18;;;;;;;17.03;10.57;;;;;;;;;;5027548;28;20512;-67
2021/03/20 01:10:44;;;;;;;11.20;6.17;;;;;;;;;;5041262;28;20177;-69
2021/03/20 01:13:09;;;;;;;11.20;6.40;;;;;;;;;;5029941;28;20648;-69
2021/03/20 01:15:35;;;;;;;11.73;7.50;;;;;;;;;;5041785;28;20182;-69
2021/03/20 01:18:00;;;;;;;13.53;6.10;;;;;;;;;;5031653;28;25162;-69
2021/03/20 01:20:26;;;;;;;12.77;6.87;;;;;;;;;;5041011;28;20196;-69
2021/03/20 01:22:52;;;;;;;12.20;7.20;;;;;;;;;;5042116;28;20192;-69
2021/03/20 01:25:17;;;;;;;10.13;6.53;;;;;;;;;;5027191;28;20272;-69
2021/03/20 01:27:43;;;;;;;11.07;6.73;;;;;;;;;;5030266;28;20371;-69
2021/03/20 01:30:15;;;;;;;10.67;6.40;;;;;;;;;;5033623;28;20196;-69
2021/03/20 01:32:42;;;;;;;11.90;6.40;;;;;;;;;;5039955;28;20529;-69
2021/03/20 01:35:08;;;;;;;8.33;6.20;;;;;;;;;;5028658;28;20219;-69
2021/03/20 01:37:34;;;;;;;13.27;6.00;;;;;;;;;;5043507;28;20706;-69
2021/03/20 01:39:59;;;;;;;10.73;5.90;;;;;;;;;;5029453;28;20187;-69
2021/03/20 01:42:25;;;;;;;12.70;6.63;;;;;;;;;;5040520;28;20231;-68
2021/03/20 01:45:16;;;;;;;11.27;6.43;;;;;;;;;;5026568;28;20287;-69
2021/03/20 01:48:13;;;;;;;10.80;6.67;;;;;;;;;;5040352;28;20236;-69
2021/03/20 01:50:50;;;;;;;11.70;6.83;;;;;;;;;;5019994;28;20677;-68
2021/03/20 01:53:48;;;;;;;9.83;6.17;;;;;;;;;;5036837;28;20208;-68
2021/03/20 01:56:19;;;;;;;12.10;6.00;;;;;;;;;;5032456;28;20233;-68
2021/03/20 01:58:47;;;;;;;9.33;5.90;;;;;;;;;;5041345;28;20189;-68
2021/03/20 02:01:29;;;;;;;9.83;6.33;;;;;;;;;;5033437;28;20204;-68
2021/03/20 02:03:55;;;;;;;12.00;6.43;;;;;;;;;;5038155;28;20213;-68
2021/03/20 02:06:21;;;;;;;12.67;6.80;;;;;;;;;;5029264;28;20197;-68
2021/03/20 02:08:48;;;;;;;11.20;6.27;;;;;;;;;;5035613;28;20224;-67
2021/03/20 02:11:32;;;;;;;11.47;6.77;;;;;;;;;;5028035;28;20208;-68
2021/03/20 02:14:23;;;;;;;10.70;6.03;;;;;;;;;;5038516;28;20185;-68
2021/03/20 02:17:07;;;;;;;9.00;6.00;;;;;;;;;;5024798;28;20205;-67
2021/03/20 02:20:00;;;;;;;13.63;6.60;;;;;;;;;;5040089;28;20174;-67
2021/03/20 02:23:02;;;;;;;12.87;6.07;;;;;;;;;;5032842;28;20193;-68
2021/03/20 02:25:58;;;;;;;11.67;6.13;;;;;;;;;;5036292;28;20629;-68
2021/03/20 02:28:58;;;;;;;9.93;5.70;;;;;;;;;;5028957;28;20271;-68
2021/03/20 02:32:01;;;;;;;11.93;5.97;;;;;;;;;;5029329;28;20189;-68
2021/03/20 02:34:40;;;;;;;9.17;6.37;;;;;;;;;;5035049;28;20645;-68
2021/03/20 02:37:15;;;;;;;11.43;6.80;;;;;;;;;;5035101;28;20177;-67
2021/03/20 02:39:59;;;;;;;11.87;6.57;;;;;;;;;;5035826;28;20253;-67
2021/03/20 02:42:53;;;;;;;11.57;6.77;;;;;;;;;;5025707;28;20193;-67
2021/03/20 02:45:40;;;;;;;10.57;6.47;;;;;;;;;;5034065;28;20252;-68
2021/03/20 02:48:24;;;;;;;11.87;6.17;;;;;;;;;;5029165;28;20209;-68
2021/03/20 02:51:04;;;;;;;10.77;5.90;;;;;;;;;;5032852;28;20181;-68
2021/03/20 02:53:38;;;;;;;11.87;6.90;;;;;;;;;;5030187;28;20185;-68
2021/03/20 02:56:07;;;;;;;13.87;6.70;;;;;;;;;;5036387;28;20316;-68
2021/03/20 02:58:39;;;;;;;10.07;6.37;;;;;;;;;;5029672;28;20236;-68
2021/03/20 03:01:15;;;;;;;10.67;6.67;;;;;;;;;;5036579;28;20248;-68
2021/03/20 03:03:43;;;;;;;14.40;6.83;;;;;;;;;;5027525;28;20688;-69
2021/03/20 03:06:20;;;;;;;11.70;6.57;;;;;;;;;;5040560;28;20207;-69
2021/03/20 03:08:54;;;;;;;13.83;7.07;;;;;;;;;;5031321;28;20193;-69
2021/03/20 03:11:25;;;;;;;12.23;6.97;;;;;;;;;;5038014;28;20193;-69
2021/03/20 03:14:13;;;;;;;13.43;7.30;;;;;;;;;;5031870;28;20235;-69
2021/03/20 03:16:51;;;;;;;11.80;6.70;;;;;;;;;;5040191;28;20829;-69
2021/03/20 03:19:23;;;;;;;11.73;6.67;;;;;;;;;;5026179;28;20196;-68
2021/03/20 03:21:52;;;;;;;12.20;6.87;;;;;;;;;;5039554;28;20612;-69
2021/03/20 03:24:21;;;;;;;11.87;6.90;;;;;;;;;;5027016;28;20181;-69
2021/03/20 03:26:54;;;;;;;17.03;7.57;;;;;;;;;;5040461;28;20578;-68
2021/03/20 03:29:24;;;;;;;13.63;7.27;;;;;;;;;;5027252;28;20220;-68
2021/03/20 03:32:01;;;;;;;14.80;6.77;;;;;;;;;;5044437;28;20679;-68
2021/03/20 03:34:50;;;;;;;15.10;6.67;;;;;;;;;;5036968;28;20521;-68
2021/03/20 03:37:25;;;;;;;11.93;6.30;;;;;;;;;;5037570;28;20182;-68
2021/03/20 03:39:54;;;;;;;14.23;6.73;;;;;;;;;;5038572;28;20267;-68
2021/03/20 03:42:21;;;;;;;10.47;6.40;;;;;;;;;;5042274;28;20300;-68
2021/03/20 03:44:50;;;;;;;12.17;6.33;;;;;;;;;;5036692;28;20253;-68
2021/03/20 03:47:28;;;;;;;13.03;7.07;;;;;;;;;;5032996;28;20240;-68
2021/03/20 03:49:56;;;;;;;12.53;6.87;;;;;;;;;;5039025;28;20265;-68
2021/03/20 03:52:21;;;;;;;13.00;7.03;;;;;;;;;;5032698;28;20190;-68
2021/03/20 03:54:48;;;;;;;11.67;6.70;;;;;;;;;;5042738;28;20628;-68
2021/03/20 03:57:52;;;;;;;13.37;7.30;;;;;;;;;;5031985;28;20656;-68
2021/03/20 04:00:25;;;;;;;12.50;6.60;;;;;;;;;;5034961;28;20197;-68
2021/03/20 04:02:59;;;;;;;11.20;6.30;;;;;;;;;;5034539;28;20536;-68
2021/03/20 04:05:30;;;;;;;10.57;6.10;;;;;;;;;;5038230;28;20200;-68
2021/03/20 04:08:11;;;;;;;11.83;6.57;;;;;;;;;;5033262;28;20322;-68
2021/03/20 04:10:51;;;;;;;9.50;6.20;;;;;;;;;;5042920;28;20209;-68
2021/03/20 04:13:43;;;;;;;12.40;7.03;;;;;;;;;;5031748;28;20193;-68
2021/03/20 04:16:17;;;;;;;12.60;6.07;;;;;;;;;;5043822;28;20503;-68
2021/03/20 04:18:48;;;;;;;12.27;6.40;;;;;;;;;;5031149;28;20189;-68
2021/03/20 04:21:29;;;;;;;12.57;6.43;;;;;;;;;;5043078;28;20188;-68
2021/03/20 04:24:12;;;;;;;11.07;6.20;;;;;;;;;;5029333;28;20491;-69
2021/03/20 04:26:51;;;;;;;12.53;6.80;;;;;;;;;;5039982;28;20255;-69
2021/03/20 04:29:35;;;;;;;13.33;6.40;;;;;;;;;;5037117;28;20193;-68
2021/03/20 04:32:17;;;;;;;10.63;6.43;;;;;;;;;;5040888;28;20216;-68
2021/03/20 04:34:54;;;;;;;11.23;6.60;;;;;;;;;;5037253;28;20657;-69
2021/03/20 04:37:25;;;;;;;13.60;6.03;;;;;;;;;;5038803;28;20264;-68
2021/03/20 04:39:53;;;;;;;13.73;6.47;;;;;;;;;;5041958;28;20209;-68
2021/03/20 04:42:34;;;;;;;7.70;5.70;;;;;;;;;;5039584;28;20866;-68
2021/03/20 04:45:05;;;;;;;11.67;6.50;;;;;;;;;;5036079;28;20566;-68
2021/03/20 04:47:34;;;;;;;10.67;7.03;;;;;;;;;;5040367;28;20262;-68
2021/03/20 04:50:03;;;;;;;13.57;6.83;;;;;;;;;;5035514;28;20672;-67
2021/03/20 04:52:28;;;;;;;12.53;6.47;;;;;;;;;;5037181;28;20193;-67
2021/03/20 04:54:54;;;;;;;12.53;6.80;;;;;;;;;;5036562;28;20201;-67
2021/03/20 04:57:33;;;;;;;12.07;6.93;;;;;;;;;;5036854;28;20732;-67
2021/03/20 05:00:11;;;;;;;13.27;7.67;;;;;;;;;;5026248;28;20248;-68
2021/03/20 05:03:05;;;;;;;13.73;6.77;;;;;;;;;;5036745;28;20185;-67
2021/03/20 05:05:42;;;;;;;16.77;6.57;;;;;;;;;;5027824;28;20222;-68
2021/03/20 05:08:12;;;;;;;13.87;6.77;;;;;;;;;;5040518;28;20251;-68
2021/03/20 05:10:43;;;;;;;12.53;6.87;;;;;;;;;;5031326;28;20581;-68
2021/03/20 05:13:28;;;;;;;13.67;7.27;;;;;;;;;;5035462;28;20194;-68
2021/03/20 05:16:00;;;;;;;13.27;6.40;;;;;;;;;;5034900;28;20659;-68
2021/03/20 05:18:25;;;;;;;17.87;8.23;;;;;;;;;;5037316;28;20251;-68
2021/03/20 05:20:51;;;;;;;11.37;6.90;;;;;;;;;;5034748;28;20201;-68
2021/03/20 05:23:16;;;;;;;14.23;7.60;;;;;;;;;;5035969;28;20244;-69
2021/03/20 05:25:41;;;;;;;17.10;7.30;;;;;;;;;;5024643;28;20190;-69
2021/03/20 05:28:07;;;;;;;12.77;6.87;;;;;;;;;;5040964;28;20201;-69
2021/03/20 05:30:32;;;;;;;12.63;7.57;;;;;;;;;;5026667;28;20289;-69
2021/03/20 05:32:57;;;;;;;16.77;6.30;;;;;;;;;;5035621;28;20215;-69
2021/03/20 05:35:26;;;;;;;13.20;7.20;;;;;;;;;;5031714;28;20181;-69
2021/03/20 05:37:51;;;;;;;13.10;6.67;;;;;;;;;;5034191;28;20193;-68
2021/03/20 05:40:30;;;;;;;12.17;6.83;;;;;;;;;;5032627;28;20269;-69
2021/03/20 05:42:55;;;;;;;12.80;7.00;;;;;;;;;;5032384;28;20189;-68
2021/03/20 05:45:37;;;;;;;12.10;7.60;;;;;;;;;;5030454;28;20224;-68
2021/03/20 05:48:27;;;;;;;14.77;6.90;;;;;;;;;;5033232;28;20237;-68
2021/03/20 05:51:10;;;;;;;12.80;7.60;;;;;;;;;;5036813;28;20251;-69
2021/03/20 05:54:04;;;;;;;13.63;6.87;;;;;;;;;;5035976;28;20185;-69
2021/03/20 05:56:50;;;;;;;11.37;6.80;;;;;;;;;;5033565;28;20193;-69
2021/03/20 05:59:30;;;;;;;12.77;7.00;;;;;;;;;;5038494;28;20193;-69
2021/03/20 06:02:31;;;;;;;15.07;7.53;;;;;;;;;;5029562;28;20598;-69
2021/03/20 06:05:30;;;;;;;13.67;7.13;;;;;;;;;;5033859;28;20236;-69
2021/03/20 06:08:31;;;;;;;12.97;7.43;;;;;;;;;;5031855;28;20684;-69
2021/03/20 06:11:01;;;;;;;18.23;8.57;;;;;;;;;;5025149;28;20820;-69
2021/03/20 06:13:46;;;;;;;12.40;7.13;;;;;;;;;;5034178;28;20193;-69
2021/03/20 06:16:17;;;;;;;14.90;8.47;;;;;;;;;;5032286;28;20220;-69
2021/03/20 06:19:02;;;;;;;14.70;8.43;;;;;;;;;;5023228;28;20178;-69
2021/03/20 06:21:54;;;;;;;18.53;9.63;;;;;;;;;;5031464;28;20225;-69
2021/03/20 06:24:52;;;;;;;16.20;8.47;;;;;;;;;;5022688;28;20205;-69
2021/03/20 06:27:27;;;;;;;15.20;8.23;;;;;;;;;;5037315;28;20225;-69
2021/03/20 06:30:16;;;;;;;13.40;8.40;;;;;;;;;;5036315;28;20500;-69
2021/03/20 06:32:45;;;;;;;18.27;9.53;;;;;;;;;;5036133;28;20185;-69
2021/03/20 06:35:16;;;;;;;17.90;9.00;;;;;;;;;;5028318;28;20280;-69
2021/03/20 06:37:48;;;;;;;19.00;10.93;;;;;;;;;;5035398;28;20174;-69
2021/03/20 06:40:25;;;;;;;20.47;11.03;;;;;;;;;;5027940;28;20192;-69
2021/03/20 06:42:51;;;;;;;20.03;10.23;;;;;;;;;;5036342;28;20837;-68
2021/03/20 06:45:30;;;;;;;18.27;10.50;;;;;;;;;;5024476;28;20234;-68
2021/03/20 06:48:21;;;;;;;23.17;12.57;;;;;;;;;;5033267;28;20197;-67
2021/03/20 06:50:56;;;;;;;24.77;12.83;;;;;;;;;;5024066;28;20205;-68
2021/03/20 06:53:37;;;;;;;25.93;13.37;;;;;;;;;;5035644;28;20193;-69
2021/03/20 06:56:04;;;;;;;20.77;12.23;;;;;;;;;;5027721;28;20616;-68
2021/03/20 06:58:38;;;;;;;16.80;10.43;;;;;;;;;;5041647;28;20184;-68
2021/03/20 07:01:24;;;;;;;19.63;11.83;;;;;;;;;;5029152;28;20189;-68
2021/03/20 07:04:26;;;;;;;21.87;13.57;;;;;;;;;;5037939;28;20316;-69
2021/03/20 07:07:28;;;;;;;21.73;13.30;;;;;;;;;;5034114;28;20200;-68
2021/03/20 07:09:54;;;;;;;22.30;12.83;;;;;;;;;;5037152;28;20605;-67
2021/03/20 07:12:25;;;;;;;18.30;12.73;;;;;;;;;;5031132;28;20235;-68
2021/03/20 07:14:55;;;;;;;19.37;11.63;;;;;;;;;;5039839;28;20284;-68
2021/03/20 07:17:26;;;;;;;16.90;11.03;;;;;;;;;;5028712;28;20610;-67
2021/03/20 07:20:03;;;;;;;13.47;9.50;;;;;;;;;;5037100;28;20260;-68
2021/03/20 07:22:30;;;;;;;16.67;11.00;;;;;;;;;;5032752;28;20196;-68
2021/03/20 07:24:56;;;;;;;17.13;10.70;;;;;;;;;;5037954;28;20204;-67
2021/03/20 07:27:30;;;;;;;13.70;8.63;;;;;;;;;;5032277;28;20522;-67
2021/03/20 07:29:59;;;;;;;12.87;7.33;;;;;;;;;;5038402;28;20220;-68
2021/03/20 07:32:24;;;;;;;10.57;7.00;;;;;;;;;;5027665;28;20229;-67
2021/03/20 07:34:51;;;;;;;11.97;7.30;;;;;;;;;;5040715;28;20223;-68
2021/03/20 07:37:20;;;;;;;13.23;6.53;;;;;;;;;;5029092;28;20255;-69
2021/03/20 07:39:57;;;;;;;10.37;6.43;;;;;;;;;;5034835;28;20201;-68
2021/03/20 07:42:28;;;;;;;11.67;7.47;;;;;;;;;;5025817;28;20232;-69
2021/03/20 07:44:55;;;;;;;15.13;9.43;;;;;;;;;;5034432;28;20248;-69
2021/03/20 07:47:24;;;;;;;12.97;9.07;;;;;;;;;;5023486;28;20613;-69
2021/03/20 07:50:08;;;;;;;14.40;8.67;;;;;;;;;;5035663;28;20679;-69
2021/03/20 07:52:33;;;;;;;9.77;5.83;;;;;;;;;;5022315;28;20192;-69
2021/03/20 07:55:17;;;;;;;9.00;5.00;;;;;;;;;;5034433;28;20742;-69
2021/03/20 07:57:54;;;;;;;8.00;4.90;;;;;;;;;;5013182;28;20247;-69
2021/03/20 08:00:26;;;;;;;8.40;5.00;;;;;;;;;;5023078;28;22004;-69
2021/03/20 08:02:52;;;;;;;8.47;4.00;;;;;;;;;;5035999;28;20214;-69
2021/03/20 08:05:20;;;;;;;6.82;4.03;;;;;;;;;;4395637;28;10001889;-69
2021/03/20 08:07:51;;;;;;;5.50;3.70;;;;;;;;;;5034052;28;20949;-70
2021/03/20 08:10:29;;;;;;;6.27;3.60;;;;;;;;;;5030010;28;20193;-70
2021/03/20 08:13:13;;;;;;;6.57;3.00;;;;;;;;;;5033308;28;20521;-70
2021/03/20 08:15:43;;;;;;;11.60;2.90;;;;;;;;;;5025663;28;20190;-71
2021/03/20 08:18:28;;;;;;;8.10;2.90;;;;;;;;;;5036012;28;20201;-71
2021/03/20 08:21:00;;;;;;;7.17;3.10;;;;;;;;;;5029290;28;20674;-70
2021/03/20 08:23:51;;;;;;;6.93;3.27;;;;;;;;;;5033539;28;20178;-70
2021/03/20 08:26:28;;;;;;;6.30;2.90;;;;;;;;;;5026485;28;20643;-71
2021/03/20 08:29:31;;;;;;;6.07;2.90;;;;;;;;;;5036409;28;20203;-70
2021/03/20 08:32:27;;;;;;;7.70;2.90;;;;;;;;;;5035768;28;20605;-70
2021/03/20 08:35:02;;;;;;;5.30;2.63;;;;;;;;;;5029643;28;20201;-71
2021/03/20 08:37:54;;;;;;;3.53;2.20;;;;;;;;;;5034907;28;20232;-70
2021/03/20 08:40:22;;;;;;;5.07;2.40;;;;;;;;;;5027477;28;20320;-71
2021/03/20 08:43:22;;;;;;;5.10;2.43;;;;;;;;;;5037154;28;20212;-70
2021/03/20 08:46:13;;;;;;;5.40;2.37;;;;;;;;;;5023109;28;20228;-70
2021/03/20 08:48:45;;;;;;;8.07;2.63;;;;;;;;;;5032248;28;20708;-71
2021/03/20 08:51:23;;;;;;;6.67;2.87;;;;;;;;;;5029085;28;20197;-71
2021/03/20 08:54:12;;;;;;;7.40;3.13;;;;;;;;;;5034150;28;20216;-71
2021/03/20 08:56:56;;;;;;;4.77;2.57;;;;;;;;;;5029450;28;20201;-71
2021/03/20 08:59:25;;;;;;;4.63;2.70;;;;;;;;;;5034653;28;20230;-70
2021/03/20 09:02:22;;;;;;;3.60;2.40;;;;;;;;;;5026454;28;20206;-71
2021/03/20 09:04:53;;;;;;;6.87;2.70;;;;;;;;;;5030618;28;20221;-71
2021/03/20 09:07:24;;;;;;;10.00;2.80;;;;;;;;;;5030802;28;20622;-71
2021/03/20 09:10:00;;;;;;;7.97;4.33;;;;;;;;;;5037463;28;20640;-71
2021/03/20 09:12:32;;;;;;;9.53;3.23;;;;;;;;;;5028404;28;20228;-72
2021/03/20 09:14:58;;;;;;;9.77;3.83;;;;;;;;;;5040803;28;20193;-71
2021/03/20 09:17:31;;;;;;;4.53;2.77;;;;;;;;;;5028606;28;20666;-71
2021/03/20 09:20:38;;;;;;;7.93;4.20;;;;;;;;;;5035563;28;20201;-71
2021/03/20 09:23:04;;;;;;;5.67;3.63;;;;;;;;;;5031622;28;20212;-71
2021/03/20 09:25:42;;;;;;;11.63;4.37;;;;;;;;;;5032046;28;20204;-72
2021/03/20 09:28:15;;;;;;;9.53;4.37;;;;;;;;;;5030091;28;20634;-71
2021/03/20 09:30:53;;;;;;;11.00;3.80;;;;;;;;;;5040920;28;20201;-71
2021/03/20 09:33:28;;;;;;;6.40;4.07;;;;;;;;;;5031670;28;20213;-71
2021/03/20 09:36:03;;;;;;;7.07;3.90;;;;;;;;;;5036525;28;20640;-71
2021/03/20 09:38:37;;;;;;;6.20;4.17;;;;;;;;;;5029323;28;20276;-71
2021/03/20 09:41:12;;;;;;;7.57;4.10;;;;;;;;;;5038508;28;20215;-71
2021/03/20 09:43:44;;;;;;;9.10;4.37;;;;;;;;;;5028946;28;20267;-72
2021/03/20 09:46:37;;;;;;;7.23;3.93;;;;;;;;;;5040839;28;20190;-71
2021/03/20 09:49:06;;;;;;;8.90;4.60;;;;;;;;;;5031038;28;20214;-71
2021/03/20 09:51:54;;;;;;;8.33;4.30;;;;;;;;;;5037932;28;20653;-70
2021/03/20 09:54:22;;;;;;;8.37;4.20;;;;;;;;;;5033876;28;20185;-70
2021/03/20 09:59:42;;;;;;;6.33;3.90;;;;;;;;;;5025428;28;20235;-70
2021/03/20 10:02:10;;;;;;;9.63;4.33;;;;;;;;;;5039846;28;20680;-70
2021/03/20 10:04:54;;;;;;;6.30;4.17;;;;;;;;;;5031003;28;20197;-70
2021/03/20 10:07:20;;;;;;;6.60;4.63;;;;;;;;;;5031851;28;20282;-70
2021/03/20 10:09:56;;;;;;;7.03;4.47;;;;;;;;;;5034594;28;20189;-70
2021/03/20 10:12:42;;;;;;;6.67;4.53;;;;;;;;;;5035112;28;20549;-70
2021/03/20 10:15:30;;;;;;;8.93;4.43;;;;;;;;;;5035556;28;20193;-70
2021/03/20 10:18:20;;;;;;;5.70;4.00;;;;;;;;;;5040274;28;20243;-71
2021/03/20 10:20:51;;;;;;;6.23;4.47;;;;;;;;;;5024821;28;20186;-71
2021/03/20 10:23:39;;;;;;;8.47;5.27;;;;;;;;;;5035090;28;20189;-71
2021/03/20 10:26:20;;;;;;;7.53;4.77;;;;;;;;;;5025166;28;20185;-71
2021/03/20 10:28:50;;;;;;;9.47;5.50;;;;;;;;;;5032030;28;20204;-71
2021/03/20 10:31:17;;;;;;;7.40;5.40;;;;;;;;;;5020330;28;20213;-71
2021/03/20 10:33:45;;;;;;;10.97;6.03;;;;;;;;;;5032498;28;20174;-71
2021/03/20 10:36:19;;;;;;;6.33;4.90;;;;;;;;;;5025266;28;20225;-71
2021/03/20 10:38:49;;;;;;;6.93;4.57;;;;;;;;;;5033094;28;20259;-70
2021/03/20 10:41:29;;;;;;;8.60;5.27;;;;;;;;;;5030069;28;20921;-70
2021/03/20 10:44:15;;;;;;;6.17;5.00;;;;;;;;;;5031782;28;20672;-70
2021/03/20 10:46:41;;;;;;;6.93;5.00;;;;;;;;;;5026622;28;20193;-70
2021/03/20 10:49:26;;;;;;;7.27;5.03;;;;;;;;;;5033712;28;20192;-70
2021/03/20 10:51:55;;;;;;;6.75;4.43;;;;;;;;;;5029015;28;20567;-70
2021/03/20 10:54:28;;;;;;;6.87;4.73;;;;;;;;;;5037009;28;20691;-70
2021/03/20 10:57:00;;;;;;;6.97;4.77;;;;;;;;;;5026781;28;20679;-71
2021/03/20 10:59:25;;;;;;;5.90;4.63;;;;;;;;;;5033158;28;20644;-70
2021/03/20 11:01:51;;;;;;;10.70;5.10;;;;;;;;;;5034988;28;20303;-70
2021/03/20 11:04:45;;;;;;;6.27;4.30;;;;;;;;;;5027951;28;20665;-71
2021/03/20 11:07:16;;;;;;;5.05;4.38;;;;;;;;;;5024845;28;20256;-71
2021/03/20 11:09:42;;;;;;;7.22;4.70;;;;;;;;;;5032970;28;20178;-71
2021/03/20 11:12:14;;;;;;;7.18;4.53;;;;;;;;;;5032794;28;20185;-71
2021/03/20 11:14:52;;;;;;;7.28;5.25;;;;;;;;;;5026513;28;20194;-72
2021/03/20 11:17:21;;;;;;;7.80;4.90;;;;;;;;;;5033371;28;20200;-69
2021/03/20 11:19:48;;;;;;;7.35;5.07;;;;;;;;;;5023294;28;20194;-72
2021/03/20 11:22:18;;;;;;;5.97;4.53;;;;;;;;;;5033157;28;20215;-71
2021/03/20 11:24:50;;;;;;;6.93;5.15;;;;;;;;;;5032698;28;20186;-70
2021/03/20 11:27:21;;;;;;;4.82;4.22;;;;;;;;;;5033640;28;20245;-71
2021/03/20 11:29:52;;;;;;;5.38;3.97;;;;;;;;;;5030860;28;20214;-70
2021/03/20 11:32:23;;;;;;;7.20;4.22;;;;;;;;;;5042614;28;20729;-70
2021/03/20 11:34:59;;;;;;;9.70;4.60;;;;;;;;;;5028439;28;20652;-70
2021/03/20 11:37:26;;;;;;;8.23;5.03;;;;;;;;;;5036593;28;20696;-70
2021/03/20 11:39:56;;;;;;;8.93;4.97;;;;;;;;;;5032249;28;20215;-70
2021/03/20 11:42:26;;;;;;;7.65;4.70;;;;;;;;;;5037086;28;23730;-70
2021/03/20 11:44:52;;;;;;;5.45;4.38;;;;;;;;;;5028560;28;20244;-70
2021/03/20 11:47:27;;;;;;;6.47;4.40;;;;;;;;;;5034640;28;20206;-70
2021/03/20 11:49:56;;;;;;;7.43;4.50;;;;;;;;;;5032439;28;20193;-70
2021/03/20 11:52:26;;;;;;;8.77;4.53;;;;;;;;;;5041063;28;20274;-70
2021/03/20 11:54:59;;;;;;;6.20;4.07;;;;;;;;;;5029891;28;20205;-70
2021/03/20 11:57:31;;;;;;;4.90;3.85;;;;;;;;;;5038671;28;20221;-69
2021/03/20 11:59:58;;;;;;;6.23;4.10;;;;;;;;;;5031909;28;20736;-70
2021/03/20 12:02:23;;;;;;;5.68;3.75;;;;;;;;;;5031632;28;20227;-71
2021/03/20 12:05:05;;;;;;;4.90;3.47;;;;;;;;;;5037003;28;21353;-70
2021/03/20 12:07:30;;;;;;;5.30;3.72;;;;;;;;;;5027919;28;20256;-70
2021/03/20 12:10:10;;;;;;;6.45;3.67;;;;;;;;;;5036913;28;20578;-72
2021/03/20 12:12:56;;;;;;;7.25;3.95;;;;;;;;;;5032738;28;20645;-70
2021/03/20 12:15:31;;;;;;;6.47;3.47;;;;;;;;;;5031809;28;20217;-69
2021/03/20 12:18:09;;;;;;;4.43;3.50;;;;;;;;;;5023884;28;20196;-70
2021/03/20 12:20:41;;;;;;;4.38;3.17;;;;;;;;;;5033396;28;20186;-71
2021/03/20 12:23:24;;;;;;;6.90;3.75;;;;;;;;;;5022787;28;20205;-71
2021/03/20 12:25:55;;;;;;;3.80;2.80;;;;;;;;;;5038024;28;20281;-71
2021/03/20 12:28:27;;;;;;;5.53;3.78;;;;;;;;;;5031889;28;20633;-71
2021/03/20 12:31:12;;;;;;;4.38;3.40;;;;;;;;;;5037904;28;20189;-71
2021/03/20 12:33:49;;;;;;;4.03;3.40;;;;;;;;;;5029370;28;20450;-71
2021/03/20 12:36:35;;;;;;;6.57;3.97;;;;;;;;;;5041384;28;20189;-71
2021/03/20 12:39:00;;;;;;;4.97;3.22;;;;;;;;;;5031702;28;20182;-71
2021/03/20 12:41:29;;;;;;;4.47;3.30;;;;;;;;;;5038536;28;20786;-71
2021/03/20 12:44:08;;;;;;;4.10;3.70;;;;;;;;;;5032500;28;20242;-71
2021/03/20 12:46:35;;;;;;;4.50;3.58;;;;;;;;;;5036114;28;20632;-72
2021/03/20 12:49:00;;;;;;;5.15;4.13;;;;;;;;;;5033656;28;20256;-71
2021/03/20 12:51:25;;;;;;;5.60;4.60;;;;;;;;;;5031503;28;20624;-70
2021/03/20 12:53:51;;;;;;;4.93;3.78;;;;;;;;;;5024874;28;20258;-70
2021/03/20 12:56:17;;;;;;;5.15;3.78;;;;;;;;;;5033271;28;20267;-71
2021/03/20 12:58:42;;;;;;;5.70;4.10;;;;;;;;;;5032658;28;20261;-71
2021/03/20 13:01:08;;;;;;;4.28;3.20;;;;;;;;;;5036429;28;20201;-73
2021/03/20 13:03:34;;;;;;;5.20;3.85;;;;;;;;;;5029461;28;20673;-71
2021/03/20 13:06:01;;;;;;;4.32;3.58;;;;;;;;;;5037402;28;20528;-72
2021/03/20 13:08:26;;;;;;;6.68;4.10;;;;;;;;;;5028263;28;20197;-71
2021/03/20 13:10:52;;;;;;;4.65;3.72;;;;;;;;;;5037387;28;20758;-70
2021/03/20 13:13:18;;;;;;;6.07;3.90;;;;;;;;;;5033735;28;20269;-71
2021/03/20 13:15:43;;;;;;;9.07;4.72;;;;;;;;;;5029615;28;20724;-71
2021/03/20 13:18:09;;;;;;;6.40;3.80;;;;;;;;;;5035436;28;20243;-71
2021/03/20 13:20:35;;;;;;;4.22;3.35;;;;;;;;;;5027547;28;20652;-71
2021/03/20 13:23:00;;;;;;;6.13;3.72;;;;;;;;;;5028726;28;20189;-71
2021/03/20 13:25:32;;;;;;;4.90;3.50;;;;;;;;;;5031136;28;20255;-71
2021/03/20 13:27:58;;;;;;;4.50;3.10;;;;;;;;;;5029187;28;20237;-71
2021/03/20 13:30:28;;;;;;;4.15;3.20;;;;;;;;;;5024566;28;20212;-71
2021/03/20 13:32:55;;;;;;;3.60;3.03;;;;;;;;;;5030408;28;20208;-71
2021/03/20 13:35:24;;;;;;;8.20;3.55;;;;;;;;;;5025036;28;21201;-70
2021/03/20 13:37:51;;;;;;;5.28;3.78;;;;;;;;;;5030111;28;20273;-70
2021/03/20 13:40:18;;;;;;;6.07;3.40;;;;;;;;;;5026216;28;20232;-71
2021/03/20 13:42:43;;;;;;;8.95;3.72;;;;;;;;;;5032130;28;20262;-71
2021/03/20 13:45:12;;;;;;;4.88;2.80;;;;;;;;;;5036045;28;20363;-71
2021/03/20 13:47:37;;;;;;;6.03;3.45;;;;;;;;;;5023645;28;20284;-69
2021/03/20 13:50:05;;;;;;;4.32;2.92;;;;;;;;;;5033503;28;20212;-71
2021/03/20 13:52:30;;;;;;;2.78;2.28;;;;;;;;;;5029234;28;20178;-71
2021/03/20 13:54:55;;;;;;;3.53;1.63;;;;;;;;;;5036012;28;20609;-71
2021/03/20 13:57:21;;;;;;;3.17;2.20;;;;;;;;;;5028212;28;20185;-71
2021/03/20 13:59:46;;;;;;;2.85;2.00;;;;;;;;;;5042377;28;20186;-71
2021/03/20 14:02:14;;;;;;;2.83;2.28;;;;;;;;;;5027564;28;20190;-71
2021/03/20 14:04:39;;;;;;;2.83;2.33;;;;;;;;;;5034282;28;20677;-73
2021/03/20 14:07:26;;;;;;;4.32;2.08;;;;;;;;;;5028484;28;20240;-70
2021/03/20 14:09:52;;;;;;;3.55;2.45;;;;;;;;;;5045336;28;20212;-70
2021/03/20 14:12:17;;;;;;;4.25;3.22;;;;;;;;;;5032098;28;20230;-70
2021/03/20 14:14:47;;;;;;;6.80;3.15;;;;;;;;;;5041189;28;20185;-71
2021/03/20 14:17:12;;;;;;;4.93;3.30;;;;;;;;;;5033188;28;20177;-71
2021/03/20 14:19:38;;;;;;;6.65;3.45;;;;;;;;;;5037538;28;20247;-70
2021/03/20 14:22:04;;;;;;;4.93;3.40;;;;;;;;;;5036175;28;20661;-70
2021/03/20 14:24:29;;;;;;;5.18;3.50;;;;;;;;;;5027550;28;20584;-70
2021/03/20 14:26:55;;;;;;;5.93;4.30;;;;;;;;;;5039093;28;20240;-70
2021/03/20 14:29:20;;;;;;;6.43;3.55;;;;;;;;;;5028864;28;20186;-71
2021/03/20 14:31:45;;;;;;;4.65;3.55;;;;;;;;;;5037824;28;20272;-70
2021/03/20 14:34:11;;;;;;;4.78;4.07;;;;;;;;;;5027162;28;20533;-70
2021/03/20 14:36:36;;;;;;;7.60;3.88;;;;;;;;;;5042027;28;20189;-70
2021/03/20 14:39:02;;;;;;;5.78;4.18;;;;;;;;;;5025508;28;20198;-70
2021/03/20 14:41:27;;;;;;;5.40;4.45;;;;;;;;;;5037308;28;20204;-70
2021/03/20 14:43:52;;;;;;;6.07;4.45;;;;;;;;;;5025675;28;20218;-70
2021/03/20 14:46:20;;;;;;;6.70;5.07;;;;;;;;;;5037645;28;20684;-70
2021/03/20 14:48:45;;;;;;;7.65;4.70;;;;;;;;;;5028112;28;20224;-70
2021/03/20 14:51:11;;;;;;;7.40;5.00;;;;;;;;;;5029970;28;20200;-70
2021/03/20 14:53:36;;;;;;;7.72;4.93;;;;;;;;;;5028324;28;20220;-71
2021/03/20 14:56:02;;;;;;;8.43;5.38;;;;;;;;;;5034597;28;20221;-70
2021/03/20 14:58:27;;;;;;;9.77;5.32;;;;;;;;;;5035359;28;20188;-70
2021/03/20 15:00:54;;;;;;;8.43;5.00;;;;;;;;;;5031961;28;20193;-70
2021/03/20 15:03:20;;;;;;;7.55;5.22;;;;;;;;;;5038978;28;20209;-70
2021/03/20 15:05:46;;;;;;;10.20;5.35;;;;;;;;;;5029854;28;20653;-71
2021/03/20 15:08:15;;;;;;;8.40;6.00;;;;;;;;;;5034188;28;20201;-71
2021/03/20 15:10:43;;;;;;;10.57;6.20;;;;;;;;;;5026374;28;20186;-71
2021/03/20 15:13:09;;;;;;;8.50;6.07;;;;;;;;;;5033963;28;20197;-71
2021/03/20 15:15:35;;;;;;;7.68;5.80;;;;;;;;;;5025736;28;20717;-71
2021/03/20 15:18:01;;;;;;;9.40;6.53;;;;;;;;;;5031166;28;20201;-71